createdAt,value
2022-09-22T00:52:57.169Z,46.67
2022-09-22T00:55:36.204Z,51.17
2022-09-22T01:10:43.311Z,57.73
2022-09-22T01:13:27.751Z,55.77
2022-09-22T01:16:15.317Z,55.77
2022-09-22T01:19:00.676Z,54.40
2022-09-22T01:21:47.449Z,56.43
2022-09-22T01:25:01.705Z,57.23
2022-09-22T01:28:05.563Z,56.50
2022-09-22T01:30:47.835Z,52.90
2022-09-22T01:33:42.930Z,54.80
2022-09-22T01:36:26.867Z,52.83
2022-09-22T01:39:09.585Z,52.97
2022-09-22T01:41:55.394Z,54.53
2022-09-22T01:44:35.550Z,56.13
2022-09-22T01:47:15.264Z,56.30
2022-09-22T01:49:55.019Z,54.13
2022-09-22T01:52:32.722Z,54.53
2022-09-22T01:55:10.094Z,57.20
2022-09-22T01:57:49.166Z,58.17
2022-09-22T02:00:24.365Z,55.40
2022-09-22T02:03:06.423Z,58.03
2022-09-22T02:05:42.993Z,55.77
2022-09-22T02:08:23.031Z,56.83
2022-09-22T02:11:00.283Z,57.87
2022-09-22T02:13:35.041Z,57.57
2022-09-22T02:16:11.186Z,57.60
2022-09-22T02:18:53.349Z,57.30
2022-09-22T02:21:29.091Z,59.07
2022-09-22T02:24:02.833Z,57.10
2022-09-22T02:26:39.154Z,57.23
2022-09-22T02:29:14.366Z,59.47
2022-09-22T02:31:48.453Z,57.33
2022-09-22T02:34:23.978Z,60.80
2022-09-22T02:37:07.730Z,60.60
2022-09-22T02:39:48.194Z,58.67
2022-09-22T02:42:33.616Z,59.00
2022-09-22T02:45:13.850Z,58.77
2022-09-22T02:47:50.611Z,60.33
2022-09-22T02:50:29.500Z,58.30
2022-09-22T02:53:06.927Z,58.93
2022-09-22T02:55:40.232Z,59.37
2022-09-22T02:58:14.395Z,60.17
2022-09-22T03:00:48.416Z,61.53
2022-09-22T03:03:21.751Z,60.63
2022-09-22T03:05:57.397Z,61.77
2022-09-22T03:08:31.865Z,63.33
2022-09-22T03:11:06.263Z,63.23
2022-09-22T03:13:39.464Z,59.00
2022-09-22T03:16:12.989Z,58.50
2022-09-22T03:18:47.096Z,59.67
2022-09-22T03:21:22.955Z,59.17
2022-09-22T03:23:57.037Z,57.37
2022-09-22T03:26:31.104Z,59.43
2022-09-22T03:29:05.205Z,60.47
2022-09-22T03:31:38.635Z,62.43
2022-09-22T03:34:12.732Z,65.63
2022-09-22T03:36:48.714Z,64.73
2022-09-22T03:39:23.107Z,66.27
2022-09-22T03:41:56.453Z,66.77
2022-09-22T03:44:30.137Z,66.30
2022-09-22T03:47:04.285Z,64.40
2022-09-22T03:49:38.307Z,67.17
2022-09-22T03:52:14.162Z,59.57
2022-09-22T03:54:48.022Z,60.57
2022-09-22T03:57:22.242Z,61.63
2022-09-22T03:59:55.723Z,59.83
2022-09-22T04:02:29.371Z,58.50
2022-09-22T04:05:03.295Z,59.53
2022-09-22T04:07:38.673Z,58.03
2022-09-22T04:10:12.295Z,54.30
2022-09-22T04:12:46.039Z,56.07
2022-09-22T04:15:20.460Z,55.87
2022-09-22T04:17:54.329Z,55.63
2022-09-22T04:20:28.773Z,56.20
2022-09-22T04:23:04.617Z,56.27
2022-09-22T04:25:38.384Z,57.70
2022-09-22T04:28:12.398Z,56.93
2022-09-22T04:30:46.127Z,57.73
2022-09-22T04:33:20.106Z,54.33
2022-09-22T04:35:53.588Z,54.57
2022-09-22T04:38:29.434Z,56.47
2022-09-22T04:41:02.582Z,55.27
2022-09-22T04:43:39.092Z,56.03
2022-09-22T04:46:12.645Z,56.10
2022-09-22T04:48:46.426Z,57.80
2022-09-22T04:51:19.723Z,59.57
2022-09-22T04:53:55.302Z,57.67
2022-09-22T04:56:29.256Z,56.53
2022-09-22T04:59:03.386Z,58.00
2022-09-22T05:01:38.126Z,57.67
2022-09-22T05:04:13.226Z,60.97
2022-09-22T05:06:46.999Z,57.07
2022-09-22T05:09:23.884Z,56.90
2022-09-22T05:12:02.390Z,56.37
2022-09-22T05:14:36.765Z,57.00
2022-09-22T05:17:18.650Z,56.63
2022-09-22T05:20:17.171Z,53.13
2022-09-22T05:22:51.010Z,51.53
2022-09-22T05:25:28.011Z,52.70
2022-09-22T05:28:01.791Z,50.23
2022-09-22T05:30:35.505Z,50.97
2022-09-22T05:33:09.396Z,51.27
2022-09-22T05:35:42.539Z,49.40
2022-09-22T05:38:15.834Z,50.87
2022-09-22T05:40:53.372Z,48.28
2022-09-22T05:43:27.618Z,47.60
2022-09-22T05:46:01.745Z,45.80
2022-09-22T05:48:35.216Z,48.38
2022-09-22T05:51:08.991Z,47.60
2022-09-22T05:53:42.237Z,45.77
2022-09-22T05:56:17.207Z,48.10
2022-09-22T05:58:52.129Z,45.90
2022-09-22T06:01:26.111Z,45.60
2022-09-22T06:04:00.715Z,48.33
2022-09-22T06:06:35.613Z,45.87
2022-09-22T06:09:09.731Z,45.30
2022-09-22T06:11:45.817Z,42.83
2022-09-22T06:14:19.935Z,43.33
2022-09-22T06:16:53.746Z,44.57
2022-09-22T06:19:27.353Z,42.97
2022-09-22T06:22:01.476Z,42.05
2022-09-22T06:24:34.868Z,41.67
2022-09-22T06:27:10.937Z,36.45
2022-09-22T06:29:44.805Z,39.28
2022-09-22T06:32:20.609Z,40.70
2022-09-22T06:34:54.332Z,41.28
2022-09-22T06:37:36.080Z,44.67
2022-09-22T06:43:21.607Z,47.40
2022-09-22T06:45:58.686Z,46.67
2022-09-22T06:48:33.441Z,50.22
2022-09-22T06:51:34.334Z,47.67
2022-09-22T06:54:19.182Z,46.57
2022-09-22T06:56:53.198Z,48.03
2022-09-22T06:59:29.329Z,44.23
2022-09-22T07:02:05.618Z,46.67
2022-09-22T07:04:39.538Z,41.17
2022-09-22T07:07:13.627Z,41.03
2022-09-22T07:09:47.075Z,38.67
2022-09-22T07:12:21.307Z,41.70
2022-09-22T07:14:57.812Z,40.57
2022-09-22T07:17:33.888Z,40.07
2022-09-22T07:20:08.817Z,44.13
2022-09-22T07:22:42.803Z,36.00
2022-09-22T07:25:17.718Z,33.80
2022-09-22T07:27:51.310Z,37.27
2022-09-22T07:30:27.469Z,34.33
2022-09-22T07:33:03.307Z,34.30
2022-09-22T07:35:39.108Z,34.37
2022-09-22T07:38:13.334Z,38.40
2022-09-22T07:40:57.337Z,33.83
2022-09-22T07:43:30.670Z,37.13
2022-09-22T07:46:07.760Z,36.70
2022-09-22T07:48:44.215Z,36.23
2022-09-22T07:51:21.827Z,34.97
2022-09-22T07:54:08.322Z,40.30
2022-09-22T07:56:43.816Z,43.10
2022-09-22T07:59:18.763Z,40.93
2022-09-22T08:01:55.350Z,40.33
2022-09-22T08:04:33.105Z,38.93
2022-09-22T08:07:08.735Z,40.80
2022-09-22T08:09:42.567Z,41.33
2022-09-22T08:12:16.110Z,40.53
2022-09-22T08:14:49.383Z,39.20
2022-09-22T08:17:26.132Z,38.63
2022-09-22T08:20:04.141Z,39.83
2022-09-22T08:22:38.304Z,39.43
2022-09-22T08:25:14.043Z,39.93
2022-09-22T08:27:47.850Z,37.93
2022-09-22T08:30:21.058Z,40.20
2022-09-22T08:32:57.159Z,40.87
2022-09-22T08:35:30.277Z,39.07
2022-09-22T08:38:04.079Z,37.47
2022-09-22T08:40:40.432Z,40.60
2022-09-22T08:43:16.414Z,42.63
2022-09-22T08:45:51.372Z,40.50
2022-09-22T08:48:45.193Z,42.13
2022-09-22T08:51:40.217Z,41.97
2022-09-22T08:54:14.333Z,41.67
2022-09-22T08:56:59.069Z,41.33
2022-09-22T08:59:43.484Z,41.60
2022-09-22T09:02:57.574Z,42.83
2022-09-22T09:06:02.649Z,45.67
2022-09-22T09:09:05.532Z,45.10
2022-09-22T09:12:04.532Z,43.03
2022-09-22T09:15:12.147Z,41.00
2022-09-22T09:17:49.027Z,46.63
2022-09-22T09:20:29.435Z,43.40
2022-09-22T09:23:08.749Z,43.73
2022-09-22T09:25:44.939Z,42.90
2022-09-22T09:28:27.014Z,41.63
2022-09-22T09:31:08.805Z,41.97
2022-09-22T09:33:48.775Z,39.40
2022-09-22T09:36:24.699Z,41.43
2022-09-22T09:39:01.028Z,42.00
2022-09-22T09:41:37.669Z,40.87
2022-09-22T09:44:18.131Z,39.27
2022-09-22T09:47:03.856Z,40.13
2022-09-22T09:49:37.749Z,42.13
2022-09-22T09:52:16.044Z,39.93
2022-09-22T09:54:54.964Z,42.73
2022-09-22T09:57:29.784Z,40.43
2022-09-22T10:00:33.909Z,40.67
2022-09-22T10:03:20.243Z,41.43
2022-09-22T10:06:03.972Z,44.23
2022-09-22T10:08:45.316Z,44.40
2022-09-22T10:11:31.225Z,45.30
2022-09-22T10:14:05.221Z,44.17
2022-09-22T10:16:38.885Z,43.03
2022-09-22T10:19:28.274Z,41.07
2022-09-22T10:22:30.135Z,41.50
2022-09-22T10:25:06.002Z,45.47
2022-09-22T10:27:42.050Z,44.93
2022-09-22T10:30:34.315Z,41.67
2022-09-22T10:33:25.579Z,42.53
2022-09-22T10:36:09.457Z,43.63
2022-09-22T10:38:47.122Z,42.40
2022-09-22T10:41:28.510Z,37.87
2022-09-22T10:44:27.754Z,38.47
2022-09-22T10:47:14.273Z,38.87
2022-09-22T10:50:24.820Z,39.87
2022-09-22T10:53:04.025Z,40.77
2022-09-22T10:55:41.210Z,40.43
2022-09-22T10:58:30.800Z,43.90
2022-09-22T11:01:22.327Z,49.67
2022-09-22T11:04:14.663Z,49.33
2022-09-22T11:07:25.798Z,50.73
2022-09-22T11:10:21.226Z,49.47
2022-09-22T11:13:04.548Z,47.57
2022-09-22T11:15:57.660Z,49.07
2022-09-22T11:18:51.500Z,49.13
2022-09-22T11:21:36.156Z,50.40
2022-09-22T11:24:40.793Z,44.47
2022-09-22T11:27:19.534Z,40.30
2022-09-22T11:30:15.206Z,30.90
2022-09-22T11:33:18.014Z,30.10
2022-09-22T11:36:24.883Z,23.93
2022-09-22T11:39:26.662Z,22.67
2022-09-22T11:42:11.448Z,19.60
2022-09-22T11:44:54.646Z,19.73
2022-09-22T11:47:41.342Z,18.00
2022-09-22T11:50:45.775Z,16.63
2022-09-22T11:53:43.082Z,15.77
2022-09-22T11:56:34.955Z,15.47
2022-09-22T11:59:16.428Z,15.00
2022-09-22T12:01:52.648Z,14.97
2022-09-22T12:04:41.554Z,14.50
2022-09-22T12:07:28.008Z,14.63
2022-09-22T12:10:08.263Z,12.47
2022-09-22T12:12:46.298Z,14.27
2022-09-22T12:15:31.344Z,14.43
2022-09-22T12:18:12.087Z,14.77
2022-09-22T12:21:04.757Z,16.30
2022-09-22T12:23:49.010Z,16.00
2022-09-22T12:26:35.147Z,15.70
2022-09-22T12:29:27.969Z,15.33
2022-09-22T12:32:03.385Z,13.70
2022-09-22T12:34:41.126Z,14.67
2022-09-22T12:37:16.486Z,14.70
2022-09-22T12:39:52.428Z,15.77
2022-09-22T12:42:35.153Z,15.70
2022-09-22T12:45:17.065Z,15.23
2022-09-22T12:47:56.970Z,12.93
2022-09-22T12:50:42.311Z,12.40
2022-09-22T12:53:28.803Z,12.70
2022-09-22T12:56:03.219Z,12.37
2022-09-22T12:58:49.063Z,12.43
2022-09-22T13:01:35.955Z,12.30
2022-09-22T13:04:22.232Z,13.57
2022-09-22T13:07:03.736Z,12.67
2022-09-22T13:09:36.887Z,13.23
2022-09-22T13:12:32.532Z,13.37
2022-09-22T13:15:21.982Z,13.70
2022-09-22T13:17:56.259Z,13.30
2022-09-22T13:20:35.148Z,12.83
2022-09-22T13:23:14.246Z,14.00
2022-09-22T13:25:48.559Z,12.67
2022-09-22T13:28:23.750Z,14.37
2022-09-22T13:31:19.864Z,13.80
2022-09-22T13:33:54.050Z,13.60
2022-09-22T13:36:28.702Z,14.63
2022-09-22T13:39:03.933Z,13.77
2022-09-22T13:41:45.357Z,13.40
2022-09-22T13:44:21.684Z,13.57
2022-09-22T13:46:58.593Z,13.97
2022-09-22T13:49:41.446Z,13.90
2022-09-22T13:52:19.508Z,13.60
2022-09-22T13:54:57.964Z,13.30
2022-09-22T13:57:34.086Z,13.03
2022-09-22T14:00:09.385Z,14.23
2022-09-22T14:02:49.165Z,14.50
2022-09-22T14:05:24.131Z,13.53
2022-09-22T14:08:18.302Z,13.93
2022-09-22T14:10:53.990Z,12.97
2022-09-22T14:13:44.810Z,11.63
2022-09-22T14:16:26.992Z,11.63
2022-09-22T14:19:09.219Z,11.37
2022-09-22T14:21:48.564Z,10.13
2022-09-22T14:24:22.968Z,10.20
2022-09-22T14:27:03.119Z,11.77
2022-09-22T14:29:39.872Z,10.33
2022-09-22T14:32:19.729Z,13.63
2022-09-22T14:34:59.743Z,13.23
2022-09-22T14:37:36.542Z,12.23
2022-09-22T14:40:20.361Z,11.57
2022-09-22T14:43:05.571Z,9.90
2022-09-22T14:45:40.069Z,10.83
2022-09-22T14:48:23.342Z,10.73
2022-09-22T14:51:02.986Z,10.43
2022-09-22T14:53:41.034Z,10.67
2022-09-22T14:56:19.423Z,12.93
2022-09-22T14:59:01.028Z,10.00
2022-09-22T15:01:53.143Z,10.53
2022-09-22T15:04:28.850Z,10.40
2022-09-22T15:07:04.781Z,10.37
2022-09-22T15:09:42.602Z,9.83
2022-09-22T15:12:39.249Z,11.00
2022-09-22T15:15:25.269Z,11.20
2022-09-22T15:18:20.993Z,11.87
2022-09-22T15:20:57.356Z,10.73
2022-09-22T15:23:40.689Z,10.67
2022-09-22T15:26:21.722Z,11.93
2022-09-22T15:29:00.198Z,12.47
2022-09-22T15:31:34.606Z,14.47
2022-09-22T15:34:08.846Z,15.53
2022-09-22T15:36:47.828Z,14.67
2022-09-22T15:39:26.729Z,13.83
2022-09-22T15:41:59.982Z,13.27
2022-09-22T15:44:34.385Z,13.07
2022-09-22T15:47:08.350Z,13.50
2022-09-22T15:49:42.820Z,13.50
2022-09-22T15:52:16.392Z,14.70
2022-09-22T15:54:51.153Z,13.73
2022-09-22T15:57:25.267Z,13.23
2022-09-22T15:59:59.061Z,12.87
2022-09-22T16:02:33.376Z,13.43
2022-09-22T16:05:07.515Z,13.80
2022-09-22T16:07:42.085Z,13.77
2022-09-22T16:10:20.733Z,13.80
2022-09-22T16:12:55.061Z,13.67
2022-09-22T16:15:28.452Z,13.83
2022-09-22T16:18:02.508Z,13.40
2022-09-22T16:20:36.576Z,13.93
2022-09-22T16:23:11.301Z,14.07
2022-09-22T16:25:47.748Z,14.00
2022-09-22T16:28:21.537Z,14.70
2022-09-22T16:30:55.193Z,13.47
2022-09-22T16:33:28.927Z,14.87
2022-09-22T16:36:02.568Z,14.90
2022-09-22T16:38:36.421Z,14.93
2022-09-22T16:41:21.375Z,15.40
2022-09-22T16:43:55.679Z,15.73
2022-09-22T16:46:33.288Z,15.60
2022-09-22T16:49:09.209Z,15.37
2022-09-22T16:51:44.606Z,18.93
2022-09-22T16:54:19.619Z,16.27
2022-09-22T16:56:56.952Z,17.50
2022-09-22T16:59:31.083Z,16.20
2022-09-22T17:02:04.371Z,16.87
2022-09-22T17:04:38.173Z,15.07
2022-09-22T17:07:11.796Z,16.00
2022-09-22T17:09:46.228Z,16.10
2022-09-22T17:12:21.283Z,16.03
2022-09-22T17:14:55.076Z,16.30
2022-09-22T17:17:28.786Z,16.83
2022-09-22T17:20:02.889Z,16.07
2022-09-22T17:22:36.497Z,15.57
2022-09-22T17:25:11.101Z,15.70
2022-09-22T17:27:46.774Z,15.57
2022-09-22T17:30:20.561Z,15.60
2022-09-22T17:32:55.096Z,15.87
2022-09-22T17:35:28.839Z,16.10
2022-09-22T17:38:03.265Z,15.17
2022-09-22T17:40:37.145Z,15.43
2022-09-22T17:43:17.589Z,15.07
2022-09-22T17:45:55.179Z,14.67
2022-09-22T17:48:46.256Z,14.30
2022-09-22T17:51:50.763Z,14.13
2022-09-22T17:54:42.700Z,13.00
2022-09-22T17:57:18.386Z,13.13
2022-09-22T17:59:54.961Z,13.00
2022-09-22T18:02:33.502Z,12.20
2022-09-22T18:05:08.042Z,12.70
2022-09-22T18:07:42.675Z,11.60
2022-09-22T18:10:19.099Z,12.43
2022-09-22T18:12:52.823Z,12.60
2022-09-22T18:15:29.975Z,13.47
2022-09-22T18:18:03.393Z,12.00
2022-09-22T18:20:36.726Z,12.03
2022-09-22T18:23:10.224Z,12.80
2022-09-22T18:25:43.904Z,12.03
2022-09-22T18:28:17.702Z,12.53
2022-09-22T18:30:53.403Z,11.20
2022-09-22T18:33:27.845Z,12.47
2022-09-22T18:36:01.222Z,12.10
2022-09-22T18:38:34.600Z,12.60
2022-09-22T18:41:08.443Z,11.93
2022-09-22T18:43:43.789Z,12.63
2022-09-22T18:46:21.958Z,12.07
2022-09-22T18:48:58.671Z,13.27
2022-09-22T18:51:32.350Z,13.80
2022-09-22T18:54:09.564Z,14.97
2022-09-22T18:56:46.712Z,15.50
2022-09-22T18:59:22.179Z,16.00
2022-09-22T19:01:58.840Z,16.13
2022-09-22T19:04:33.065Z,16.83
2022-09-22T19:07:22.594Z,16.90
2022-09-22T19:09:56.048Z,16.10
2022-09-22T19:12:32.094Z,16.57
2022-09-22T19:15:06.326Z,16.57
2022-09-22T19:17:41.943Z,16.13
2022-09-22T19:20:18.350Z,15.97
2022-09-22T19:22:53.445Z,16.40
2022-09-22T19:25:27.837Z,16.03
2022-09-22T19:28:03.609Z,16.97
2022-09-22T19:30:37.810Z,17.70
2022-09-22T19:33:13.915Z,17.57
2022-09-22T19:35:47.512Z,17.80
2022-09-22T19:38:21.558Z,17.43
2022-09-22T19:40:58.756Z,16.87
2022-09-22T19:43:33.213Z,17.70
2022-09-22T19:46:07.188Z,18.00
2022-09-22T19:48:42.880Z,18.20
2022-09-22T19:51:15.678Z,19.17
2022-09-22T19:53:49.463Z,17.70
2022-09-22T19:56:23.552Z,19.13
2022-09-22T19:58:58.027Z,19.33
2022-09-22T20:01:37.218Z,19.67
2022-09-22T20:04:17.293Z,20.47
2022-09-22T20:06:51.573Z,20.23
2022-09-22T20:09:25.420Z,20.47
2022-09-22T20:11:59.645Z,19.60
2022-09-22T20:14:34.047Z,19.93
2022-09-22T20:17:09.489Z,20.43
2022-09-22T20:19:45.818Z,19.63
2022-09-22T20:22:28.833Z,20.77
2022-09-22T20:25:04.014Z,21.70
2022-09-22T20:27:39.173Z,20.90
2022-09-22T20:30:13.785Z,20.93
2022-09-22T20:32:48.760Z,20.60
2022-09-22T20:35:25.828Z,20.17
2022-09-22T20:38:00.546Z,19.43
2022-09-22T20:40:34.581Z,20.40
2022-09-22T20:43:08.916Z,19.53
2022-09-22T20:45:43.148Z,19.17
2022-09-22T20:48:20.758Z,18.00
2022-09-22T20:51:03.437Z,17.97
2022-09-22T20:53:41.175Z,17.90
2022-09-22T20:56:15.832Z,17.73
2022-09-22T20:58:50.384Z,17.87
2022-09-22T21:01:27.330Z,16.50
2022-09-22T21:04:01.682Z,15.67
2022-09-22T21:06:37.734Z,15.70
2022-09-22T21:09:28.269Z,14.60
2022-09-22T21:12:01.531Z,14.83
2022-09-22T21:14:35.361Z,15.27
2022-09-22T21:17:10.285Z,14.43
2022-09-22T21:19:44.514Z,14.23
2022-09-22T21:22:21.150Z,14.20
2022-09-22T21:24:54.880Z,14.33
2022-09-22T21:27:28.929Z,13.50
2022-09-22T21:30:03.034Z,13.50
2022-09-22T21:32:37.365Z,13.40
2022-09-22T21:35:11.311Z,13.60
2022-09-22T21:37:46.976Z,13.00
2022-09-22T21:40:20.945Z,12.90
2022-09-22T21:42:54.408Z,13.20
2022-09-22T21:45:28.233Z,12.93
2022-09-22T21:48:03.061Z,12.50
2022-09-22T21:50:36.759Z,12.80
2022-09-22T21:53:13.600Z,12.70
2022-09-22T21:55:48.025Z,13.03
2022-09-22T21:58:22.420Z,13.37
2022-09-22T22:00:56.630Z,12.77
2022-09-22T22:03:36.818Z,13.37
2022-09-22T22:06:13.985Z,14.73
2022-09-22T22:08:51.593Z,14.17
2022-09-22T22:11:26.558Z,13.47
2022-09-22T22:14:01.649Z,12.17
2022-09-22T22:16:44.067Z,12.13
2022-09-22T22:19:21.247Z,11.77
2022-09-22T22:21:56.315Z,11.60
2022-09-22T22:24:36.784Z,12.00
2022-09-22T22:27:11.416Z,16.63
2022-09-22T22:29:46.004Z,13.00
2022-09-22T22:32:20.696Z,14.80
2022-09-22T22:34:56.716Z,15.13
2022-09-22T22:37:30.467Z,12.63
2022-09-22T22:40:06.897Z,12.97
2022-09-22T22:42:41.217Z,13.13
2022-09-22T22:45:15.903Z,13.17
2022-09-22T22:47:50.221Z,13.40
2022-09-22T22:50:24.035Z,13.50
2022-09-22T22:52:58.064Z,13.97
2022-09-22T22:55:33.660Z,12.43
2022-09-22T22:58:08.155Z,12.67
2022-09-22T23:00:41.796Z,11.93
2022-09-22T23:03:15.471Z,11.57
2022-09-22T23:05:58.412Z,9.80
2022-09-22T23:08:33.523Z,10.77
2022-09-22T23:11:12.623Z,9.93
2022-09-22T23:13:52.202Z,9.97
2022-09-22T23:16:28.410Z,9.63
2022-09-22T23:19:03.434Z,10.03
2022-09-22T23:21:36.841Z,9.50
2022-09-22T23:24:11.991Z,10.17
2022-09-22T23:26:47.654Z,11.33
2022-09-22T23:29:24.820Z,10.70
2022-09-22T23:31:59.133Z,11.67
2022-09-22T23:34:33.099Z,11.53
2022-09-22T23:37:07.360Z,12.37
2022-09-22T23:39:40.859Z,11.00
2022-09-22T23:42:17.072Z,11.53
2022-09-22T23:44:50.688Z,11.33
2022-09-22T23:47:24.902Z,11.40
2022-09-22T23:49:58.484Z,10.87
2022-09-22T23:52:32.685Z,10.60
2022-09-22T23:55:06.070Z,10.27
2022-09-22T23:57:42.163Z,10.97
